Rize — 9HA2781 — position and weather

sailwx.info

Track history (hours):
 
Tides and Currents Weather Stations Pressure Air Temp Water Temp Dewpoint Dewpoint Depression Visibility Wind Speed Wind Dir Waves Ship Positions

Rize

Last reported at 2015-Jan-15 05:30 UTC. Time now 2015-Feb-28 06:53 UTC.
Position N 36°21' E 014°10'.
Warning: this ship's position is 44 days out of date.

Length 229 m; draft 14.3 m.

Type: Cargo ship. MMSI: 215677000.

Date/timePositionNaut miles runAvg speedWind from/ knotsBaromVisibWave heightAir tempDewpointWater temp
2015-Jan-15 05:30N 36°21' E 014°10'11 9.9
2015-Jan-15 04:24N 36°25' E 013°57'1910.2
2015-Jan-15 02:33N 36°31' E 013°35'1010.0
2015-Jan-15 01:33N 36°35' E 013°24'10 9.8
2015-Jan-15 00:33N 36°39' E 013°12'1210.2
2015-Jan-14 23:24N 36°43' E 012°59'1210.3
2015-Jan-14 22:14N 36°47' E 012°45'15510.5
2015-Jan-14 07:31N 37°35' E 009°40'1010.1
2015-Jan-14 06:33N 37°36' E 009°28'1410.4
2015-Jan-14 05:14N 37°36' E 009°11'3810.2
2015-Jan-14 01:32N 37°36' E 008°23'1111.0
2015-Jan-14 00:34N 37°34' E 008°09'128 9.7
2015-Jan-13 11:22N 37°24' E 005°29'1112.2
2015-Jan-13 10:26N 37°24' E 005°15'  
2015-Jan-11 05:33N 36°02' W 005°16'8 7.4
2015-Jan-11 04:31N 36°07' W 005°22'0 0.1
2015-Jan-11 03:31N 36°07' W 005°22'0 0.0
2015-Jan-11 02:25N 36°07' W 005°22'0 0.1
2015-Jan-11 01:31N 36°08' W 005°23'0 0.3
2015-Jan-11 00:33N 36°07' W 005°22'5 4.9
2015-Jan-10 23:34N 36°03' W 005°21'4 3.9
2015-Jan-10 22:33N 35°59' W 005°22'238 7.4
2015-Jan-09 14:23N 37°20' W 010°01'47 9.3
2015-Jan-09 09:22N 38°04' W 010°19'8 9.6
2015-Jan-09 08:34N 38°12' W 010°22'1211.6
2015-Jan-09 07:33N 38°23' W 010°27'21 9.5
2015-Jan-09 05:21N 38°44' W 010°30'17 9.1
2015-Jan-09 03:32N 39°00' W 010°30'21 9.0
2015-Jan-09 01:10N 39°21' W 010°30'  
2015-Jan-05 13:30N 49°38' W 003°53'40 9.1
2015-Jan-05 09:06N 49°59' W 003°01'24 6.7
2015-Jan-05 05:30N 50°05' W 002°25'  
Track history (hours):
 
Tides and Currents Weather Stations Pressure Air Temp Water Temp Dewpoint Dewpoint Depression Visibility Wind Speed Wind Dir Waves Ship Positions

Rize

Last reported at 2015-Jan-15 05:30 UTC. Time now 2015-Feb-28 06:53 UTC.
Position N 36°21' E 014°10'.
Warning: this ship's position is 44 days out of date.

Length 229 m; draft 14.3 m.

Type: Cargo ship. MMSI: 215677000.

Date/timePositionNaut miles runAvg speedWind from/ knotsBaromVisibWave heightAir tempDewpointWater temp
2015-Jan-15 05:30N 36°21' E 014°10'11 9.9
2015-Jan-15 04:24N 36°25' E 013°57'1910.2
2015-Jan-15 02:33N 36°31' E 013°35'1010.0
2015-Jan-15 01:33N 36°35' E 013°24'10 9.8
2015-Jan-15 00:33N 36°39' E 013°12'1210.2
2015-Jan-14 23:24N 36°43' E 012°59'1210.3
2015-Jan-14 22:14N 36°47' E 012°45'15510.5
2015-Jan-14 07:31N 37°35' E 009°40'1010.1
2015-Jan-14 06:33N 37°36' E 009°28'1410.4
2015-Jan-14 05:14N 37°36' E 009°11'3810.2
2015-Jan-14 01:32N 37°36' E 008°23'1111.0
2015-Jan-14 00:34N 37°34' E 008°09'128 9.7
2015-Jan-13 11:22N 37°24' E 005°29'1112.2
2015-Jan-13 10:26N 37°24' E 005°15'  
2015-Jan-11 05:33N 36°02' W 005°16'8 7.4
2015-Jan-11 04:31N 36°07' W 005°22'0 0.1
2015-Jan-11 03:31N 36°07' W 005°22'0 0.0
2015-Jan-11 02:25N 36°07' W 005°22'0 0.1
2015-Jan-11 01:31N 36°08' W 005°23'0 0.3
2015-Jan-11 00:33N 36°07' W 005°22'5 4.9
2015-Jan-10 23:34N 36°03' W 005°21'4 3.9
2015-Jan-10 22:33N 35°59' W 005°22'238 7.4
2015-Jan-09 14:23N 37°20' W 010°01'47 9.3
2015-Jan-09 09:22N 38°04' W 010°19'8 9.6
2015-Jan-09 08:34N 38°12' W 010°22'1211.6
2015-Jan-09 07:33N 38°23' W 010°27'21 9.5
2015-Jan-09 05:21N 38°44' W 010°30'17 9.1
2015-Jan-09 03:32N 39°00' W 010°30'21 9.0
2015-Jan-09 01:10N 39°21' W 010°30'  
2015-Jan-05 13:30N 49°38' W 003°53'40 9.1
2015-Jan-05 09:06N 49°59' W 003°01'24 6.7
2015-Jan-05 05:30N 50°05' W 002°25'  

Dump ship's entire track history